createdAt,value
2017-10-31T00:02:13.464Z,94.30
2017-10-31T00:05:24.080Z,94.30
2017-10-31T00:08:34.322Z,94.30
2017-10-31T00:11:44.887Z,94.30
2017-10-31T00:14:54.812Z,94.30
2017-10-31T00:18:06.235Z,94.30
2017-10-31T00:21:16.157Z,94.30
2017-10-31T00:24:26.613Z,94.40
2017-10-31T00:27:36.666Z,94.30
2017-10-31T00:33:58.453Z,94.30
2017-10-31T00:37:08.349Z,94.40
2017-10-31T00:40:18.485Z,94.40
2017-10-31T00:43:28.880Z,94.40
2017-10-31T00:46:38.726Z,94.50
2017-10-31T00:49:48.942Z,94.50
2017-10-31T00:52:58.930Z,94.50
2017-10-31T00:56:09.709Z,94.60
2017-10-31T00:59:20.713Z,94.50
2017-10-31T01:02:30.491Z,94.50
2017-10-31T01:05:40.687Z,94.60
2017-10-31T01:08:50.491Z,94.60
2017-10-31T01:12:01.167Z,94.60
2017-10-31T01:15:11.601Z,94.50
2017-10-31T01:18:21.919Z,94.50
2017-10-31T01:21:31.851Z,94.50
2017-10-31T01:24:42.423Z,94.60
2017-10-31T01:27:52.190Z,94.60
2017-10-31T01:31:02.742Z,94.60
2017-10-31T01:34:13.030Z,94.70
2017-10-31T01:37:22.894Z,94.70
2017-10-31T01:40:32.400Z,94.60
2017-10-31T01:43:42.396Z,94.70
2017-10-31T01:46:52.241Z,94.70
2017-10-31T01:50:02.199Z,94.70
2017-10-31T01:53:12.277Z,94.70
2017-10-31T01:56:23.017Z,94.80
2017-10-31T01:59:33.372Z,94.70
2017-10-31T02:02:43.422Z,94.70
2017-10-31T02:05:54.070Z,94.80
2017-10-31T02:09:03.475Z,94.90
2017-10-31T02:12:14.026Z,95.00
2017-10-31T02:15:24.475Z,95.00
2017-10-31T02:18:35.268Z,95.00
2017-10-31T02:21:45.518Z,95.00
2017-10-31T02:24:55.294Z,95.00
2017-10-31T02:28:04.768Z,95.10
2017-10-31T02:31:14.582Z,95.10
2017-10-31T02:34:24.458Z,95.10
2017-10-31T02:37:35.927Z,95.40
2017-10-31T02:40:46.691Z,95.30
2017-10-31T02:43:57.401Z,95.40
2017-10-31T02:47:06.913Z,95.40
2017-10-31T02:50:16.745Z,95.40
2017-10-31T02:53:26.945Z,95.40
2017-10-31T02:56:37.478Z,95.60
2017-10-31T02:59:47.103Z,95.60
2017-10-31T03:02:57.153Z,95.60
2017-10-31T03:06:07.702Z,95.80
2017-10-31T03:09:17.762Z,95.80
2017-10-31T03:12:27.525Z,96.20
2017-10-31T03:15:37.617Z,96.10
2017-10-31T03:18:47.537Z,96.20
2017-10-31T03:21:57.441Z,96.30
2017-10-31T03:25:07.337Z,96.30
2017-10-31T03:28:17.258Z,96.30
2017-10-31T03:31:26.897Z,96.20
2017-10-31T03:34:36.786Z,96.30
2017-10-31T03:37:47.682Z,96.40
2017-10-31T03:40:57.829Z,96.40
2017-10-31T03:44:07.532Z,96.30
2017-10-31T03:47:17.421Z,96.50
2017-10-31T03:50:27.297Z,96.50
2017-10-31T03:53:37.028Z,96.40
2017-10-31T03:56:47.645Z,96.40
2017-10-31T03:59:57.382Z,96.50
2017-10-31T04:03:07.387Z,96.40
2017-10-31T04:06:17.811Z,96.60
2017-10-31T04:09:27.548Z,96.70
2017-10-31T04:12:37.498Z,96.70
2017-10-31T04:15:47.893Z,96.60
2017-10-31T04:18:58.528Z,96.90
2017-10-31T04:22:09.153Z,96.90
2017-10-31T04:25:19.603Z,96.90
2017-10-31T04:28:30.231Z,96.90
2017-10-31T04:31:40.829Z,96.90
2017-10-31T04:34:51.451Z,96.90
2017-10-31T04:38:01.676Z,96.90
2017-10-31T04:41:11.528Z,96.80
2017-10-31T04:44:21.599Z,96.80
2017-10-31T04:47:31.687Z,96.70
2017-10-31T04:50:41.779Z,96.60
2017-10-31T04:53:51.957Z,96.60
2017-10-31T04:57:02.171Z,96.70
2017-10-31T05:00:12.447Z,96.60
2017-10-31T05:03:22.422Z,96.80
2017-10-31T05:06:33.241Z,96.90
2017-10-31T05:09:43.830Z,96.90
2017-10-31T05:12:53.741Z,96.90
2017-10-31T05:16:03.737Z,97.00
2017-10-31T05:19:13.999Z,96.90
2017-10-31T05:22:24.354Z,96.90
2017-10-31T05:25:34.364Z,96.80
2017-10-31T05:28:44.110Z,96.90
2017-10-31T05:31:54.663Z,96.70
2017-10-31T05:35:04.985Z,96.60
2017-10-31T05:38:19.183Z,96.50
2017-10-31T05:41:29.717Z,96.50
2017-10-31T05:44:39.997Z,96.50
2017-10-31T05:47:50.933Z,96.60
2017-10-31T05:51:01.360Z,96.60
2017-10-31T05:54:11.319Z,96.60
2017-10-31T05:57:21.392Z,96.40
2017-10-31T06:00:31.821Z,96.40
2017-10-31T06:03:42.318Z,96.50
2017-10-31T06:06:53.370Z,96.60
2017-10-31T06:10:03.487Z,96.40
2017-10-31T06:13:13.911Z,96.30
2017-10-31T06:16:23.888Z,96.40
2017-10-31T06:19:34.150Z,96.40
2017-10-31T06:22:49.730Z,96.50
2017-10-31T06:26:05.397Z,96.30
2017-10-31T06:29:21.165Z,96.50
2017-10-31T06:32:31.414Z,96.50
2017-10-31T06:35:41.345Z,96.40
2017-10-31T06:38:51.806Z,96.30
2017-10-31T06:42:02.094Z,96.40
2017-10-31T06:45:12.570Z,96.30
2017-10-31T06:48:22.454Z,96.30
2017-10-31T06:51:32.897Z,96.30
2017-10-31T06:54:42.964Z,96.20
2017-10-31T06:57:53.380Z,96.20
2017-10-31T07:01:03.250Z,96.20
2017-10-31T07:04:13.915Z,96.30
2017-10-31T07:07:25.384Z,96.20
2017-10-31T07:10:35.301Z,96.20
2017-10-31T07:13:45.375Z,96.10
2017-10-31T07:16:55.807Z,96.30
2017-10-31T07:20:06.390Z,96.20
2017-10-31T07:23:17.249Z,96.20
2017-10-31T07:26:27.461Z,96.20
2017-10-31T07:29:37.516Z,96.00
2017-10-31T07:32:48.110Z,95.70
2017-10-31T07:35:58.968Z,95.70
2017-10-31T07:39:09.755Z,95.80
2017-10-31T07:42:19.960Z,95.50
2017-10-31T07:45:31.397Z,95.00
2017-10-31T07:48:42.180Z,95.00
2017-10-31T07:51:52.544Z,95.30
2017-10-31T07:55:15.596Z,95.20
2017-10-31T07:58:28.543Z,95.00
2017-10-31T08:01:40.599Z,95.30
2017-10-31T08:04:51.329Z,95.30
2017-10-31T08:08:02.540Z,94.20
2017-10-31T08:11:12.953Z,94.20
2017-10-31T08:14:23.371Z,94.20
2017-10-31T08:17:33.562Z,94.50
2017-10-31T08:20:44.181Z,94.00
2017-10-31T08:23:54.902Z,93.80
2017-10-31T08:27:05.022Z,93.40
2017-10-31T08:30:15.150Z,93.40
2017-10-31T08:33:25.309Z,93.80
2017-10-31T08:36:35.384Z,94.10
2017-10-31T08:39:45.270Z,93.60
2017-10-31T08:42:55.647Z,93.40
2017-10-31T08:46:06.346Z,94.20
2017-10-31T08:49:16.530Z,93.90
2017-10-31T08:52:28.274Z,92.90
2017-10-31T08:55:38.835Z,92.90
2017-10-31T08:58:49.546Z,93.40
2017-10-31T09:01:59.994Z,93.00
2017-10-31T09:05:10.658Z,92.80
2017-10-31T09:08:20.827Z,93.00
2017-10-31T09:11:30.699Z,92.80
2017-10-31T09:14:41.669Z,92.70
2017-10-31T09:17:51.520Z,92.40
2017-10-31T09:21:03.136Z,92.50
2017-10-31T09:24:13.256Z,92.40
2017-10-31T09:27:24.704Z,92.50
2017-10-31T09:30:35.255Z,92.50
2017-10-31T09:33:45.459Z,92.70
2017-10-31T09:36:56.479Z,92.00
2017-10-31T09:40:07.101Z,92.00
2017-10-31T09:43:17.687Z,91.60
2017-10-31T09:46:28.857Z,91.90
2017-10-31T09:49:39.372Z,91.90
2017-10-31T09:52:50.025Z,91.90
2017-10-31T09:56:00.244Z,92.10
2017-10-31T09:59:10.570Z,91.70
2017-10-31T10:02:20.677Z,91.90
2017-10-31T10:05:30.803Z,91.70
2017-10-31T10:08:41.524Z,91.60
2017-10-31T10:11:51.731Z,91.60
2017-10-31T10:15:11.330Z,91.70
2017-10-31T10:18:22.502Z,91.20
2017-10-31T10:21:33.100Z,90.90
2017-10-31T10:24:43.550Z,90.90
2017-10-31T10:27:53.424Z,90.50
2017-10-31T10:31:03.599Z,90.40
2017-10-31T10:34:14.201Z,90.80
2017-10-31T10:37:24.910Z,90.80
2017-10-31T10:40:34.919Z,90.80
2017-10-31T10:43:45.055Z,90.00
2017-10-31T10:46:55.587Z,90.30
2017-10-31T10:50:05.849Z,90.70
2017-10-31T10:53:16.377Z,90.10
2017-10-31T10:56:26.678Z,90.20
2017-10-31T10:59:36.698Z,90.50
2017-10-31T11:02:46.335Z,89.50
2017-10-31T11:05:56.980Z,89.40
2017-10-31T11:09:06.724Z,88.70
2017-10-31T11:12:17.071Z,90.10
2017-10-31T11:15:27.192Z,90.00
2017-10-31T11:18:37.210Z,90.20
2017-10-31T11:21:46.925Z,89.70
2017-10-31T11:24:57.098Z,89.40
2017-10-31T11:28:07.280Z,88.90
2017-10-31T11:31:17.249Z,87.20
2017-10-31T11:34:26.945Z,88.60
2017-10-31T11:37:36.708Z,88.70
2017-10-31T11:40:46.867Z,88.00
2017-10-31T11:43:56.984Z,88.70
2017-10-31T11:47:06.872Z,88.20
2017-10-31T11:50:16.949Z,88.90
2017-10-31T11:53:27.328Z,89.00
2017-10-31T11:56:37.638Z,88.30
2017-10-31T11:59:47.374Z,89.70
2017-10-31T12:02:57.990Z,89.70
2017-10-31T12:06:09.427Z,89.60
2017-10-31T12:09:19.899Z,89.90
2017-10-31T12:12:32.326Z,90.00
2017-10-31T12:15:43.187Z,90.10
2017-10-31T12:18:54.021Z,90.00
2017-10-31T12:22:04.681Z,89.10
2017-10-31T12:25:14.994Z,89.60
2017-10-31T12:28:25.010Z,89.70
2017-10-31T12:31:35.764Z,88.80
2017-10-31T12:34:45.838Z,88.80
2017-10-31T12:37:56.154Z,89.40
2017-10-31T12:41:07.001Z,89.40
2017-10-31T12:44:17.448Z,89.40
2017-10-31T12:47:28.111Z,89.40
2017-10-31T12:50:38.382Z,89.20
2017-10-31T12:53:48.718Z,90.00
2017-10-31T12:56:58.647Z,89.00
2017-10-31T13:00:09.659Z,88.20
2017-10-31T13:03:20.782Z,88.30
2017-10-31T13:06:31.535Z,88.30
2017-10-31T13:09:42.467Z,87.80
2017-10-31T13:12:53.371Z,87.70
2017-10-31T13:16:03.582Z,88.00
2017-10-31T13:19:14.200Z,85.60
2017-10-31T13:22:26.841Z,86.70
2017-10-31T13:25:37.390Z,86.50
2017-10-31T13:28:49.170Z,86.10
2017-10-31T13:31:59.659Z,86.00
2017-10-31T13:35:10.158Z,86.00
2017-10-31T13:38:21.655Z,86.70
2017-10-31T13:41:32.274Z,86.70
2017-10-31T13:44:43.012Z,86.90
2017-10-31T13:47:53.444Z,86.40
2017-10-31T13:51:03.723Z,86.50
2017-10-31T13:54:13.997Z,86.60
2017-10-31T13:57:24.094Z,87.60
2017-10-31T14:00:35.046Z,87.10
2017-10-31T14:03:45.497Z,86.50
2017-10-31T14:06:56.412Z,87.10
2017-10-31T14:10:07.065Z,86.60
2017-10-31T14:13:16.907Z,87.20
2017-10-31T14:16:28.047Z,86.30
2017-10-31T14:19:39.295Z,86.50
2017-10-31T14:22:50.144Z,86.40
2017-10-31T14:26:00.978Z,86.40
2017-10-31T14:29:11.166Z,86.70
2017-10-31T14:32:21.234Z,87.30
2017-10-31T14:35:31.065Z,87.40
2017-10-31T14:38:41.502Z,87.70
2017-10-31T14:41:52.510Z,87.70
2017-10-31T14:45:03.536Z,88.60
2017-10-31T14:48:13.478Z,88.50
2017-10-31T14:51:24.307Z,87.60
2017-10-31T14:54:34.604Z,87.60
2017-10-31T14:57:44.756Z,88.00
2017-10-31T15:00:54.918Z,87.90
2017-10-31T15:04:05.645Z,88.00
2017-10-31T15:07:15.798Z,88.00
2017-10-31T15:10:26.410Z,88.40
2017-10-31T15:13:36.304Z,88.50
2017-10-31T15:16:47.261Z,89.50
2017-10-31T15:19:57.486Z,89.40
2017-10-31T15:23:07.676Z,89.20
2017-10-31T15:26:18.587Z,89.30
2017-10-31T15:29:29.191Z,89.60
2017-10-31T15:32:39.379Z,90.10
2017-10-31T15:35:49.507Z,90.00
2017-10-31T15:38:59.983Z,89.50
2017-10-31T15:42:10.026Z,90.10
2017-10-31T15:45:20.259Z,90.30
2017-10-31T15:48:30.530Z,90.20
2017-10-31T15:51:40.368Z,90.00
2017-10-31T15:54:50.653Z,90.00
2017-10-31T15:58:00.843Z,90.10
2017-10-31T16:01:12.294Z,90.50
2017-10-31T16:04:22.547Z,90.40
2017-10-31T16:07:32.382Z,90.30
2017-10-31T16:10:42.516Z,90.50
2017-10-31T16:13:52.664Z,90.50
2017-10-31T16:17:03.305Z,90.40
2017-10-31T16:20:13.445Z,90.40
2017-10-31T16:23:23.509Z,90.40
2017-10-31T16:26:33.498Z,90.60
2017-10-31T16:29:44.638Z,90.80
2017-10-31T16:32:54.856Z,90.80
2017-10-31T16:36:05.255Z,90.70
2017-10-31T16:39:15.417Z,90.70
2017-10-31T16:42:26.045Z,90.90
2017-10-31T16:45:36.553Z,90.80
2017-10-31T16:48:46.791Z,91.00
2017-10-31T16:51:56.935Z,90.90
2017-10-31T16:55:08.407Z,91.10
2017-10-31T16:58:18.650Z,91.10
2017-10-31T17:01:28.915Z,91.10
2017-10-31T17:04:39.595Z,91.30
2017-10-31T17:07:50.142Z,91.30
2017-10-31T17:11:00.851Z,91.10
2017-10-31T17:14:11.310Z,91.30
2017-10-31T17:17:21.499Z,91.30
2017-10-31T17:20:31.542Z,91.20
2017-10-31T17:23:41.958Z,91.10
2017-10-31T17:26:52.060Z,91.30
2017-10-31T17:30:02.101Z,91.30
2017-10-31T17:33:12.983Z,91.70
2017-10-31T17:36:22.848Z,91.30
2017-10-31T17:39:33.718Z,91.30
2017-10-31T17:42:44.356Z,91.20
2017-10-31T17:45:54.657Z,91.40
2017-10-31T17:49:05.084Z,91.20
2017-10-31T17:52:15.602Z,91.30
2017-10-31T17:55:26.856Z,91.50
2017-10-31T17:58:37.022Z,91.40
2017-10-31T18:01:47.423Z,91.40
2017-10-31T18:04:57.330Z,91.20
2017-10-31T18:08:07.741Z,91.40
2017-10-31T18:11:18.415Z,91.30
2017-10-31T18:14:29.172Z,91.60
2017-10-31T18:17:39.452Z,91.80
2017-10-31T18:20:50.254Z,92.10
2017-10-31T18:24:00.270Z,91.80
2017-10-31T18:27:10.503Z,91.50
2017-10-31T18:30:21.522Z,91.70
2017-10-31T18:33:32.672Z,91.60
2017-10-31T18:36:43.951Z,91.70
2017-10-31T18:39:54.351Z,91.60
2017-10-31T18:43:04.939Z,91.40
2017-10-31T18:46:16.448Z,91.70
2017-10-31T18:49:27.467Z,91.80
2017-10-31T18:52:37.539Z,91.80
2017-10-31T18:55:49.173Z,92.10
2017-10-31T18:58:59.071Z,92.00
2017-10-31T19:02:09.774Z,92.10
2017-10-31T19:05:21.139Z,92.10
2017-10-31T19:08:31.145Z,92.10
2017-10-31T19:11:41.626Z,92.20
2017-10-31T19:14:51.618Z,92.00
2017-10-31T19:18:02.401Z,91.90
2017-10-31T19:21:12.790Z,92.20
2017-10-31T19:24:22.921Z,92.20
2017-10-31T19:27:32.797Z,92.00
2017-10-31T19:30:42.862Z,92.20
2017-10-31T19:33:52.947Z,92.00
2017-10-31T19:37:02.823Z,92.20
2017-10-31T19:40:13.662Z,92.20
2017-10-31T19:43:24.210Z,92.10
2017-10-31T19:46:34.278Z,92.10
2017-10-31T19:49:44.339Z,92.00
2017-10-31T19:52:54.613Z,92.20
2017-10-31T19:56:04.915Z,92.00
2017-10-31T19:59:15.002Z,92.10
2017-10-31T20:02:25.118Z,92.00
2017-10-31T20:05:35.769Z,92.00
2017-10-31T20:08:46.730Z,91.80
2017-10-31T20:11:58.050Z,91.60
2017-10-31T20:15:09.361Z,91.70
2017-10-31T20:18:19.130Z,91.70
2017-10-31T20:21:29.277Z,91.70
2017-10-31T20:24:39.032Z,91.70
2017-10-31T20:27:49.085Z,91.60
2017-10-31T20:30:59.023Z,91.30
2017-10-31T20:34:09.611Z,91.40
2017-10-31T20:37:20.286Z,91.50
2017-10-31T20:40:30.250Z,91.50
2017-10-31T20:43:40.200Z,91.40
2017-10-31T20:46:50.205Z,91.40
2017-10-31T20:50:00.068Z,91.30
2017-10-31T20:53:10.025Z,91.40
2017-10-31T20:56:20.052Z,91.60
2017-10-31T20:59:30.116Z,91.40
2017-10-31T21:02:40.931Z,91.50
2017-10-31T21:05:51.171Z,91.50
2017-10-31T21:09:01.239Z,91.40
2017-10-31T21:12:11.170Z,91.20
2017-10-31T21:15:22.546Z,91.40
2017-10-31T21:18:32.501Z,91.40
2017-10-31T21:21:42.786Z,91.40
2017-10-31T21:24:53.418Z,91.40
2017-10-31T21:28:03.631Z,91.40
2017-10-31T21:31:13.628Z,91.40
2017-10-31T21:34:23.473Z,91.50
2017-10-31T21:37:33.754Z,91.40
2017-10-31T21:40:43.839Z,91.20
2017-10-31T21:43:53.977Z,91.20
2017-10-31T21:47:04.271Z,91.20
2017-10-31T21:50:14.332Z,91.30
2017-10-31T21:53:24.285Z,91.30
2017-10-31T21:56:34.331Z,91.10
2017-10-31T21:59:44.263Z,91.30
2017-10-31T22:02:54.198Z,91.20
2017-10-31T22:06:04.308Z,91.20
2017-10-31T22:09:14.294Z,91.30
2017-10-31T22:12:24.318Z,91.20
2017-10-31T22:15:34.509Z,91.30
2017-10-31T22:18:44.648Z,91.20
2017-10-31T22:21:54.734Z,91.20
2017-10-31T22:25:04.866Z,91.20
2017-10-31T22:28:15.302Z,91.20
2017-10-31T22:31:25.116Z,91.20
2017-10-31T22:34:35.542Z,91.30
2017-10-31T22:37:46.120Z,91.50
2017-10-31T22:40:56.014Z,91.60
2017-10-31T22:44:06.482Z,91.40
2017-10-31T22:47:16.265Z,91.40
2017-10-31T22:50:26.207Z,91.50
2017-10-31T22:53:37.329Z,91.50
2017-10-31T22:56:47.299Z,91.40
2017-10-31T22:59:57.620Z,91.60
2017-10-31T23:03:07.894Z,91.40
2017-10-31T23:06:20.319Z,91.30
2017-10-31T23:09:30.912Z,91.40
2017-10-31T23:12:41.078Z,91.40
2017-10-31T23:15:51.126Z,91.50
2017-10-31T23:19:00.922Z,91.60
2017-10-31T23:22:10.917Z,91.40
2017-10-31T23:25:20.941Z,91.50
2017-10-31T23:28:32.074Z,91.60
2017-10-31T23:31:42.418Z,91.60
2017-10-31T23:34:52.383Z,91.60
2017-10-31T23:38:02.546Z,91.80
2017-10-31T23:41:12.277Z,91.80
2017-10-31T23:44:23.627Z,91.80
2017-10-31T23:47:34.046Z,91.70
2017-10-31T23:50:44.126Z,91.70
2017-10-31T23:53:54.572Z,91.70
2017-10-31T23:57:04.508Z,91.60
